logo
Search for airport 
image banner adimage banner adimage banner ad
image banner ad

FAJOHN - John Weston

Located in , South Africa

ICAO - , IATA -

Data provided by Airmate  

General information

Coordinates: S28°44'30" E24°40'0"
Elevation is 3937 feet MSL.
 
View others Airports in Northern Cape

Operational data

Special qualification required
Current time UTC:
Current local time:
Weather at : FAKM - Kimberley ( 12 km )
METAR: FAKM 180900Z 35006KT CAVOK 22/12 Q1027
TAF: TAF FAKM 180900Z 1810/1818 01008KT CAVOK TX26/1813Z TN17/1818Z
View NOTAMs / SUP AIP / TFR affecting this airport [VIEW]
Communications frequencies: [VIEW]

Runways:

RWY identifierQFULength (ft)Width (ft)SurfaceLDA (ft)
0214°393749SAND
20194°393749SAND
1190°255949SAND
29270°255949SAND

Airport contact information

Address: South Africa

Satellite view of FAJOHN